TimeEDT,TemperatureF,Dew PointF,Humidity,Sea Level PressureIn,VisibilityMPH,Wind Direction,Wind SpeedMPH,Gust SpeedMPH,PrecipitationIn,Events,Conditions,WindDirDegrees,DateUTC
12:51 AM,62.1,55.0,78,29.78,10.0,NW,11.5,-,N/A,,Overcast,320,2013-09-14 04:51:00
3:51 AM,57.9,53.1,84,29.81,10.0,NW,3.5,-,N/A,,Clear,320,2013-09-14 07:51:00
4:51 AM,57.0,52.0,83,29.82,10.0,WNW,4.6,-,N/A,,Clear,300,2013-09-14 08:51:00
5:51 AM,55.9,50.0,80,29.84,10.0,NW,5.8,-,N/A,,Partly Cloudy,310,2013-09-14 09:51:00
6:51 AM,55.9,50.0,80,29.87,10.0,WNW,6.9,-,N/A,,Scattered Clouds,300,2013-09-14 10:51:00
7:51 AM,57.9,50.0,75,29.88,10.0,WNW,6.9,-,N/A,,Scattered Clouds,300,2013-09-14 11:51:00
8:51 AM,60.1,50.0,69,29.89,10.0,NW,9.2,-,N/A,,Partly Cloudy,310,2013-09-14 12:51:00
9:51 AM,63.0,51.1,65,29.91,10.0,NW,10.4,-,N/A,,Scattered Clouds,320,2013-09-14 13:51:00
10:51 AM,64.9,51.1,61,29.91,10.0,NNW,6.9,-,N/A,,Mostly Cloudy,330,2013-09-14 14:51:00
11:51 AM,66.0,52.0,60,29.92,10.0,North,6.9,-,N/A,,Mostly Cloudy,350,2013-09-14 15:51:00
12:51 PM,68.0,52.0,56,29.93,10.0,NNW,10.4,-,N/A,,Mostly Cloudy,330,2013-09-14 16:51:00
1:51 PM,69.1,52.0,54,29.92,10.0,NW,8.1,-,N/A,,Mostly Cloudy,310,2013-09-14 17:51:00
2:51 PM,70.0,52.0,53,29.93,10.0,NNW,9.2,-,N/A,,Mostly Cloudy,330,2013-09-14 18:51:00
3:51 PM,69.1,51.1,53,29.94,10.0,Variable,6.9,-,N/A,,Mostly Cloudy,0,2013-09-14 19:51:00
4:51 PM,68.0,51.1,55,29.95,10.0,West,12.7,-,N/A,,Scattered Clouds,270,2013-09-14 20:51:00
5:51 PM,66.0,50.0,56,29.97,10.0,WNW,10.4,-,N/A,,Scattered Clouds,300,2013-09-14 21:51:00
6:51 PM,63.0,52.0,67,30.00,10.0,WNW,8.1,-,N/A,,Partly Cloudy,300,2013-09-14 22:51:00
7:51 PM,61.0,51.1,70,30.02,10.0,WNW,6.9,-,N/A,,Partly Cloudy,290,2013-09-14 23:51:00
8:51 PM,60.1,51.1,72,30.05,10.0,WNW,6.9,-,N/A,,Partly Cloudy,290,2013-09-15 00:51:00
9:51 PM,57.9,51.1,78,30.06,10.0,WNW,4.6,-,N/A,,Partly Cloudy,290,2013-09-15 01:51:00
10:51 PM,55.9,51.1,84,30.07,10.0,West,3.5,-,N/A,,Partly Cloudy,280,2013-09-15 02:51:00
11:51 PM,55.0,51.1,86,30.08,10.0,West,4.6,-,N/A,,Clear,270,2013-09-15 03:51:00